• Join FlightAware (Why Join?)
  • Login
  • US Flag 
09:00AM EDT


 

Airport Tracker/Info


-or-


 

Live Flight TrackerFlight Track Log ✈ RPA3284 ✈ 29-Oct-2013 ✈ KPVD - KPHL

Flight Track Log - Related Links

Times and Time Zones

All times are in EDT time to prevent confusion due to time zone crossing. See the RPA3284 flight status page for this flight to view local times or setup timezone preferences in your user account.

Time Position Orientation Groundspeed Altitude Reporting Facility
EDT Latitude Longitude Course Direction KTS MPH feet Rate Location/Type
04:02PM 41.7339 -71.4186 57° Northeast 146 168 800  Level Boston Center
04:02PM 41.7411 -71.4039 57° Northeast 146 168 1,700 2,220 Climbing Boston Center
04:03PM 41.7619 -71.3297 69° East 212 244 3,800 1,860 Climbing Boston Center
04:04PM 41.7531 -71.3042 115° Southeast 245 282 4,200 2,160 Climbing Boston Center
04:04PM 41.7042 -71.2878 166° South 271 312 6,000 2,820 Climbing Boston Center
04:05PM 41.6247 -71.2822 177° South 285 328 9,200 2,820 Climbing Boston Center
04:06PM 41.5422 -71.2764 177° South 296 341 11,700 2,460 Climbing Boston Center
04:07PM 41.4436 -71.2672 176° South 327 376 14,300 2,280 Climbing Boston Center
04:08PM 41.3469 -71.2600 177° South 347 399 16,500 1,860 Climbing Boston Center
04:09PM 41.2492 -71.2528 177° South 353 406 18,100 1,680 Climbing Boston Center
04:10PM 41.1636 -71.2967 201° Southwest 346 398 19,900 1,680 Climbing Boston Center
04:11PM 41.1183 -71.3986 240° Southwest 328 377 21,600 1,620 Climbing Boston Center
04:12PM 41.0783 -71.5083 244° Southwest 330 380 23,300 1,560 Climbing Boston Center
04:13PM 41.0378 -71.6264 246° West 340 391 24,800 1,320 Climbing Boston Center
04:14PM 40.9872 -71.7317 238° Southwest 354 407 26,000 540 Climbing Boston Center
04:16PM 40.9242 -71.8358 231° Southwest 364 419 26,000  Level Boston Center
04:17PM 40.8528 -71.9564 232° Southwest 365 420 26,000  Level Boston Center
04:18PM 40.7917 -72.0631 233° Southwest 364 419 26,000  Level Boston Center
04:19PM 40.7242 -72.1775 232° Southwest 370 426 26,000  Level Boston Center
04:20PM 40.6622 -72.2839 233° Southwest 369 425 26,000  Level Boston Center
04:21PM 40.5981 -72.3889 231° Southwest 370 426 26,000  Level Boston Center
04:22PM 40.5347 -72.4958 232° Southwest 371 427 26,000 -60 Level Boston Center
04:23PM 40.4706 -72.6028 232° Southwest 374 430 25,900 -960 Descending Boston Center
04:24PM 40.4083 -72.7089 232° Southwest 369 425 24,100 -1,860 Descending Boston Center
04:25PM 40.3469 -72.8111 232° Southwest 359 413 22,200 -2,040 Descending Boston Center
04:25PM 40.2925 -72.9017 232° Southwest 361 415 20,600 -1,260 Descending New York Center
04:26PM 40.2344 -72.9950 231° Southwest 355 409 20,000 -300 Descending New York Center
04:27PM 40.1742 -73.0936 231° Southwest 355 409 20,000  Level New York Center
04:28PM 40.1139 -73.1892 231° Southwest 350 403 20,000  Level New York Center
04:29PM 40.0556 -73.2875 232° Southwest 350 403 20,000  Level New York Center
04:30PM 39.9972 -73.3831 231° Southwest 350 403 20,000  Level New York Center
04:31PM 39.9433 -73.4703 231° Southwest 350 403 20,000  Level New York Center
04:32PM 39.8806 -73.5678 230° Southwest 350 403 20,000  Level New York Center
04:33PM 39.8219 -73.6656 232° Southwest 350 403 20,000  Level New York Center
04:34PM 39.7611 -73.7631 231° Southwest 350 403 20,000 -360 Level New York Center
04:35PM 39.7022 -73.8603 232° Southwest 350 403 19,300 -1,440 Descending New York Center
04:38PM 39.5703 -74.0653 230° Southwest 337 388 15,400 -1,680 Descending Washington Center
04:39PM 39.5258 -74.1603 239° Southwest 332 382 14,000 -720 Descending Washington Center
04:40PM 39.5269 -74.2678 271° West 302 348 14,000  Level Washington Center
04:41PM 39.5281 -74.3700 271° West 297 342 14,000 -540 Level Washington Center
04:42PM 39.5311 -74.4694 272° West 292 336 13,000 -1,260 Descending Washington Center
04:43PM 39.5300 -74.5772 269° West 287 330 11,500 -1,500 Descending Washington Center
04:44PM 39.5333 -74.7333 272° West 266 306 9,200 -1,020 Descending Philadelphia TRACON
04:45PM 39.5333 -74.8333 270° West 255 293 9,000 -600 Descending Philadelphia TRACON
04:46PM 39.5333 -74.9167 270° West 249 287 8,000 -540 Descending Philadelphia TRACON
04:47PM 39.5333 -74.9833 270° West 212 244 8,000 -960 Level Philadelphia TRACON
04:48PM 39.6000 -75.0333 330° Northwest 238 274 6,200 -1,020 Descending Philadelphia TRACON
04:49PM 39.6500 -75.0667 333° Northwest 202 232 6,000 -120 Descending Philadelphia TRACON
04:50PM 39.7000 -75.0833 346° North 202 232 6,000  Level Philadelphia TRACON
04:51PM 39.7667 -75.0833 360° North 204 235 6,000  Level Philadelphia TRACON
04:52PM 39.8167 -75.0500 27° Northeast 214 246 6,000 -300 Level Philadelphia TRACON
04:53PM 39.8333 -74.9667 75° East 212 244 5,400 -480 Descending Philadelphia TRACON
04:54PM 39.8500 -74.9000 72° East 208 239 5,000 -240 Descending Philadelphia TRACON
04:55PM 39.8667 -74.8500 67° East 207 238 5,000 -60 Level Philadelphia TRACON
04:56PM 39.9167 -74.8500 360° North 206 237 4,900 -480 Descending Philadelphia TRACON
04:57PM 39.9333 -74.9333 285° West 184 212 4,000 -540 Descending Philadelphia TRACON
04:58PM 39.9167 -74.9833 247° West 171 197 3,800 -600 Descending Philadelphia TRACON
04:59PM 39.9167 -75.0333 270° West 175 201 2,900 -900 Descending Philadelphia TRACON
05:00PM 39.9000 -75.1000 252° West 149 171 2,000 -840 Descending Philadelphia TRACON
05:01PM 39.9000 -75.1500 270° West 131 151 1,300 -720 Descending Philadelphia TRACON
05:02PM 39.8833 -75.1833 237° Southwest 127 146 600 -720 Descending Philadelphia TRACON
05:04PM 39.8667 -75.2333 282° West  Level FlightAware Approximate
05:11PM 39.8722 -75.2409 282° West  Level Estimated